Time;durP1;ratioP1;P1;durP2;ratioP2;P2;SDS_P1;SDS_P2;PMS_P1;PMS_P2;Temp;Humidity;BMP_temperature;BMP_pressure;BME280_temperature;BME280_humidity;BME280_pressure;Samples;Min_cycle;Max_cycle;Signal;HPM_P1;HPM_P2
2022/09/14 00:00:08;;;;;;;;;;;;;;;19.48;100.00;97201.63;5073768;28;19921;-75
2022/09/14 00:02:36;;;;;;;;;;;;;;;19.51;100.00;97198.22;5073725;28;20012;-75
2022/09/14 00:05:03;;;;;;;;;;;;;;;19.56;100.00;97195.31;5073671;28;19988;-75
2022/09/14 00:07:29;;;;;;;;;;;;;;;19.57;100.00;97200.38;5076614;28;20386;-75
2022/09/14 00:09:55;;;;;;;;;;;;;;;19.55;100.00;97193.72;5077011;28;19927;-74
2022/09/14 00:12:21;;;;;;;;;;;;;;;19.59;100.00;97192.69;5075074;28;19925;-75
2022/09/14 00:14:48;;;;;;;;;;;;;;;19.61;100.00;97187.75;5073637;28;19964;-75
2022/09/14 00:17:14;;;;;;;;;;;;;;;19.34;100.00;97174.84;5074249;28;19924;-74
2022/09/14 00:19:42;;;;;;;;;;;;;;;19.15;100.00;97175.38;5076829;28;20313;-75
2022/09/14 00:22:08;;;;;;;;;;;;;;;19.25;100.00;97179.56;5076628;28;19932;-75
2022/09/14 00:24:35;;;;;;;;;;;;;;;19.33;100.00;97179.47;5076760;28;19931;-75
2022/09/14 00:27:02;;;;;;;;;;;;;;;19.40;100.00;97170.81;5076939;28;19991;-74
2022/09/14 00:29:28;;;;;;;;;;;;;;;19.31;100.00;97146.50;5074085;28;19920;-75
2022/09/14 00:31:56;;;;;;;;;;;;;;;19.24;100.00;97149.00;5073501;28;19984;-73
2022/09/14 00:34:22;;;;;;;;;;;;;;;19.29;100.00;97161.50;5075145;28;19988;-75
2022/09/14 00:36:50;;;;;;;;;;;;;;;19.34;100.00;97153.19;5076771;28;20641;-75
2022/09/14 00:39:18;;;;;;;;;;;;;;;19.39;100.00;97163.78;5075893;28;19995;-75
2022/09/14 00:41:45;;;;;;;;;;;;;;;19.37;100.00;97157.94;5076937;28;19925;-75
2022/09/14 00:44:26;;;;;;;;;;;;;;;19.40;100.00;97146.44;5082743;28;19984;-75
2022/09/14 00:46:54;;;;;;;;;;;;;;;19.45;100.00;97158.97;5081269;28;19932;-75
2022/09/14 00:49:23;;;;;;;;;;;;;;;19.47;100.00;97156.69;5078778;28;20647;-75
2022/09/14 00:51:54;;;;;;;;;;;;;;;19.50;100.00;97158.72;5076755;28;19925;-75
2022/09/14 00:54:20;;;;;;;;;;;;;;;19.50;100.00;97159.53;5079130;28;19925;-74
2022/09/14 00:56:47;;;;;;;;;;;;;;;19.54;100.00;97154.22;5080229;28;20427;-74
2022/09/14 00:59:16;;;;;;;;;;;;;;;19.55;100.00;97147.69;5079880;28;19970;-75
2022/09/14 01:01:42;;;;;;;;;;;;;;;19.53;100.00;97147.25;5076333;28;19963;-75
2022/09/14 01:04:09;;;;;;;;;;;;;;;19.53;100.00;97149.97;5076775;28;19925;-75
2022/09/14 01:06:39;;;;;;;;;;;;;;;19.51;100.00;97152.19;5078950;28;19992;-75
2022/09/14 01:09:14;;;;;;;;;;;;;;;19.50;100.00;97156.03;5079172;28;19920;-75
2022/09/14 01:11:50;;;;;;;;;;;;;;;19.49;100.00;97149.03;5068198;28;19960;-75
2022/09/14 01:14:20;;;;;;;;;;;;;;;19.44;100.00;97143.84;5068145;28;19992;-75
2022/09/14 01:16:50;;;;;;;;;;;;;;;19.46;100.00;97144.31;5067720;28;19920;-74
2022/09/14 01:19:23;;;;;;;;;;;;;;;19.45;100.00;97145.44;5068315;28;19935;-74
2022/09/14 01:21:51;;;;;;;;;;;;;;;19.49;100.00;97140.91;5068113;28;19925;-74
2022/09/14 01:24:25;;;;;;;;;;;;;;;19.48;100.00;97142.03;5078577;28;19940;-75
2022/09/14 01:27:00;;;;;;;;;;;;;;;19.34;100.00;97137.72;5080183;28;19991;-76
2022/09/14 01:29:30;;;;;;;;;;;;;;;19.26;100.00;97141.31;5077406;28;19920;-74
2022/09/14 01:32:00;;;;;;;;;;;;;;;19.22;100.00;97137.72;5076208;28;19947;-75
2022/09/14 01:34:31;;;;;;;;;;;;;;;19.17;100.00;97132.53;5079640;28;19964;-74
2022/09/14 01:37:01;;;;;;;;;;;;;;;19.10;100.00;97128.78;5062334;28;19928;-76
2022/09/14 01:39:30;;;;;;;;;;;;;;;19.18;100.00;97133.31;5077109;28;19983;-76
2022/09/14 01:42:00;;;;;;;;;;;;;;;19.23;100.00;97128.47;5076245;28;19925;-75
2022/09/14 01:44:30;;;;;;;;;;;;;;;19.28;100.00;97128.22;5079248;28;20007;-74
2022/09/14 01:46:59;;;;;;;;;;;;;;;19.35;100.00;97139.31;5080054;28;19989;-75
2022/09/14 01:49:31;;;;;;;;;;;;;;;19.38;100.00;97127.78;5077348;28;20060;-75
2022/09/14 01:51:59;;;;;;;;;;;;;;;19.39;100.00;97134.84;5075330;28;19924;-75
2022/09/14 01:54:30;;;;;;;;;;;;;;;19.40;100.00;97130.97;5079079;28;19924;-74
2022/09/14 01:56:59;;;;;;;;;;;;;;;19.42;100.00;97127.16;5079288;28;19921;-74
2022/09/14 01:59:28;;;;;;;;;;;;;;;19.38;100.00;97124.28;5076617;28;19934;-75
2022/09/14 02:01:57;;;;;;;;;;;;;;;19.28;100.00;97128.22;5075716;28;20039;-76
2022/09/14 02:04:27;;;;;;;;;;;;;;;19.25;100.00;97122.69;5077748;28;19992;-74
2022/09/14 02:06:55;;;;;;;;;;;;;;;19.28;100.00;97117.41;5079089;28;20023;-74
2022/09/14 02:09:25;;;;;;;;;;;;;;;19.35;100.00;97119.56;5077324;28;19920;-74
2022/09/14 02:11:52;;;;;;;;;;;;;;;19.35;100.00;97119.56;5075653;28;19921;-75
2022/09/14 02:14:18;;;;;;;;;;;;;;;19.16;100.00;97122.81;5076774;28;19925;-75
2022/09/14 02:16:45;;;;;;;;;;;;;;;18.95;100.00;97105.88;5078769;28;19988;-74
2022/09/14 02:19:13;;;;;;;;;;;;;;;18.86;100.00;97105.19;5078377;28;19926;-75
2022/09/14 02:21:39;;;;;;;;;;;;;;;18.90;100.00;97106.13;5075136;28;20027;-75
2022/09/14 02:24:06;;;;;;;;;;;;;;;19.01;100.00;97106.44;5075742;28;19989;-75
2022/09/14 02:26:33;;;;;;;;;;;;;;;19.09;100.00;97109.06;5067339;28;19921;-75
2022/09/14 02:28:59;;;;;;;;;;;;;;;19.11;100.00;97101.41;5066983;28;20025;-75
2022/09/14 02:31:30;;;;;;;;;;;;;;;18.87;100.00;97090.56;5066914;28;19984;-75
2022/09/14 02:34:03;;;;;;;;;;;;;;;18.80;100.00;97074.88;5056968;28;20019;-75
2022/09/14 02:36:34;;;;;;;;;;;;;;;18.91;100.00;97077.91;5075675;28;19971;-74
2022/09/14 02:39:03;;;;;;;;;;;;;;;19.02;100.00;97073.66;5074878;28;19960;-74
2022/09/14 02:41:38;;;;;;;;;;;;;;;19.12;100.00;97069.72;5077974;28;19972;-75
2022/09/14 02:44:08;;;;;;;;;;;;;;;19.11;100.00;97063.50;5060284;28;19935;-75
2022/09/14 02:46:38;;;;;;;;;;;;;;;19.17;100.00;97066.78;5074707;28;19924;-74
2022/09/14 02:49:09;;;;;;;;;;;;;;;19.21;100.00;97065.78;5074352;28;19931;-74
2022/09/14 02:51:42;;;;;;;;;;;;;;;19.23;100.00;97066.22;5057365;28;19947;-75
2022/09/14 02:54:10;;;;;;;;;;;;;;;19.01;100.00;97063.16;5075244;28;19944;-75
2022/09/14 02:56:37;;;;;;;;;;;;;;;18.77;100.00;97061.22;5078200;28;19991;-75
2022/09/14 02:59:03;;;;;;;;;;;;;;;18.82;100.00;97055.59;5078035;28;19967;-75
2022/09/14 03:01:30;;;;;;;;;;;;;;;18.91;100.00;97050.84;5074639;28;19925;-75
2022/09/14 03:03:56;;;;;;;;;;;;;;;18.98;100.00;97055.72;5073993;28;19960;-75
2022/09/14 03:06:23;;;;;;;;;;;;;;;19.07;100.00;97056.38;5076586;28;19992;-75
2022/09/14 03:08:50;;;;;;;;;;;;;;;19.12;100.00;97046.16;5077572;28;19924;-75
2022/09/14 03:11:17;;;;;;;;;;;;;;;19.15;100.00;97042.78;5074985;28;20095;-75
2022/09/14 03:13:43;;;;;;;;;;;;;;;19.18;100.00;97041.28;5074562;28;20404;-75
2022/09/14 03:16:10;;;;;;;;;;;;;;;19.19;100.00;97034.72;5074957;28;19956;-74
2022/09/14 03:18:37;;;;;;;;;;;;;;;19.23;100.00;97038.34;5060353;28;19947;-75
2022/09/14 03:21:04;;;;;;;;;;;;;;;19.17;100.00;97018.84;5076347;28;19995;-75
2022/09/14 03:23:30;;;;;;;;;;;;;;;19.17;100.00;97016.13;5075156;28;20139;-74
2022/09/14 03:25:58;;;;;;;;;;;;;;;19.10;100.00;97005.09;5074398;28;19927;-74
2022/09/14 03:28:24;;;;;;;;;;;;;;;19.00;100.00;97010.94;5076764;28;19925;-75
2022/09/14 03:30:51;;;;;;;;;;;;;;;18.99;100.00;97003.19;5077389;28;19929;-75
2022/09/14 03:33:18;;;;;;;;;;;;;;;19.02;100.00;97006.00;5075064;28;19920;-75
2022/09/14 03:35:44;;;;;;;;;;;;;;;19.07;100.00;97011.19;5074525;28;19967;-75
2022/09/14 03:38:10;;;;;;;;;;;;;;;19.13;100.00;97011.72;5074660;28;19996;-76
2022/09/14 03:40:38;;;;;;;;;;;;;;;19.16;100.00;97011.06;5077259;28;20011;-75
2022/09/14 03:43:07;;;;;;;;;;;;;;;19.17;100.00;97023.47;5077562;28;19928;-75
2022/09/14 03:45:36;;;;;;;;;;;;;;;19.15;100.00;97037.34;5065760;28;19935;-75
2022/09/14 03:48:02;;;;;;;;;;;;;;;19.16;100.00;97052.44;5065953;28;19960;-74
2022/09/14 03:50:29;;;;;;;;;;;;;;;19.18;100.00;97069.16;5047920;28;19968;-75
2022/09/14 03:52:55;;;;;;;;;;;;;;;19.23;100.00;97068.91;5072928;28;20012;-75
2022/09/14 03:55:21;;;;;;;;;;;;;;;19.23;100.00;97084.38;5075325;28;19927;-74
2022/09/14 03:57:48;;;;;;;;;;;;;;;19.18;100.00;97090.81;5073465;28;20376;-74
2022/09/14 04:00:15;;;;;;;;;;;;;;;19.12;100.00;97116.53;5074522;28;19996;-74
2022/09/14 04:02:44;;;;;;;;;;;;;;;19.07;100.00;97143.78;5077028;28;19931;-74
2022/09/14 04:05:10;;;;;;;;;;;;;;;19.18;100.00;97109.75;5077232;28;19994;-74
2022/09/14 04:07:36;;;;;;;;;;;;;;;19.18;100.00;97101.63;5073976;28;19984;-74
2022/09/14 04:10:04;;;;;;;;;;;;;;;19.12;100.00;97085.94;5074425;28;19971;-74
2022/09/14 04:12:33;;;;;;;;;;;;;;;18.97;100.00;97076.56;5077209;28;19947;-74
2022/09/14 04:15:00;;;;;;;;;;;;;;;18.75;100.00;97061.53;5082071;28;19935;-74
2022/09/14 04:17:28;;;;;;;;;;;;;;;18.78;100.00;97049.28;5080913;28;19988;-74
2022/09/14 04:19:54;;;;;;;;;;;;;;;18.88;100.00;97010.19;5079052;28;20386;-74
2022/09/14 04:22:20;;;;;;;;;;;;;;;18.80;100.00;97009.16;5079931;28;19992;-74
2022/09/14 04:24:47;;;;;;;;;;;;;;;18.92;100.00;97016.47;5080702;28;19925;-74
2022/09/14 04:27:13;;;;;;;;;;;;;;;18.95;100.00;97035.53;5078803;28;19936;-74
2022/09/14 04:29:40;;;;;;;;;;;;;;;18.92;100.00;97060.56;5077142;28;19925;-74
2022/09/14 04:32:06;;;;;;;;;;;;;;;18.90;100.00;97052.00;5077400;28;19988;-75
2022/09/14 04:34:35;;;;;;;;;;;;;;;18.96;100.00;97041.75;5080565;28;20000;-75
2022/09/14 04:37:01;;;;;;;;;;;;;;;19.03;100.00;97031.16;5080640;28;20149;-75
2022/09/14 04:39:28;;;;;;;;;;;;;;;19.06;100.00;97039.38;5077901;28;19931;-75
2022/09/14 04:41:54;;;;;;;;;;;;;;;19.13;100.00;97063.16;5077166;28;19924;-74
2022/09/14 04:44:20;;;;;;;;;;;;;;;19.12;100.00;97048.06;5078835;28;19925;-75
2022/09/14 04:46:47;;;;;;;;;;;;;;;19.06;100.00;97054.84;5080294;28;20804;-74
2022/09/14 04:49:13;;;;;;;;;;;;;;;19.07;100.00;97068.00;5079889;28;19971;-74
2022/09/14 04:51:41;;;;;;;;;;;;;;;19.07;100.00;97050.97;5059276;28;19932;-75
2022/09/14 04:54:07;;;;;;;;;;;;;;;18.92;100.00;97082.22;5077811;28;19925;-75
2022/09/14 04:56:34;;;;;;;;;;;;;;;18.87;100.00;97101.38;5068984;28;19992;-75
2022/09/14 04:59:03;;;;;;;;;;;;;;;18.96;100.00;97071.50;5069410;28;19931;-75
2022/09/14 05:01:30;;;;;;;;;;;;;;;18.67;100.00;97086.00;5068755;28;19929;-75
2022/09/14 05:03:57;;;;;;;;;;;;;;;18.50;100.00;97069.97;5068270;28;19981;-76
2022/09/14 05:06:24;;;;;;;;;;;;;;;18.31;100.00;97062.31;5067258;28;19971;-75
2022/09/14 05:08:52;;;;;;;;;;;;;;;18.31;100.00;97057.72;5068283;28;19925;-76
2022/09/14 05:11:20;;;;;;;;;;;;;;;18.39;100.00;97033.63;5068174;28;19927;-76
2022/09/14 05:13:46;;;;;;;;;;;;;;;18.48;100.00;97012.69;5068520;28;19925;-75
2022/09/14 05:16:15;;;;;;;;;;;;;;;18.43;100.00;97010.19;5068469;28;19930;-74
2022/09/14 05:18:41;;;;;;;;;;;;;;;18.37;100.00;96990.72;5076563;28;19956;-75
2022/09/14 05:21:09;;;;;;;;;;;;;;;18.36;100.00;96991.81;5076364;28;19921;-75
2022/09/14 05:23:36;;;;;;;;;;;;;;;18.36;100.00;97005.34;5076760;28;20036;-75
2022/09/14 05:26:04;;;;;;;;;;;;;;;18.37;100.00;97016.94;5076027;28;19936;-75
2022/09/14 05:28:31;;;;;;;;;;;;;;;18.30;100.00;97014.78;5079545;28;19976;-75
2022/09/14 05:30:57;;;;;;;;;;;;;;;18.06;100.00;97006.63;5079674;28;19924;-74
2022/09/14 05:33:24;;;;;;;;;;;;;;;18.09;100.00;97012.16;5059496;28;19991;-74
2022/09/14 05:35:50;;;;;;;;;;;;;;;18.18;100.00;97012.06;5075980;28;19956;-75
2022/09/14 05:38:17;;;;;;;;;;;;;;;18.41;100.00;97001.66;5077619;28;19924;-76
2022/09/14 05:40:43;;;;;;;;;;;;;;;18.18;100.00;96979.63;5079844;28;19967;-74
2022/09/14 05:43:11;;;;;;;;;;;;;;;18.09;100.00;96966.22;5079368;28;19984;-74
2022/09/14 05:45:37;;;;;;;;;;;;;;;18.19;100.00;96973.91;5076104;28;19963;-74
2022/09/14 05:48:04;;;;;;;;;;;;;;;18.07;100.00;96976.53;5075843;28;19925;-74
2022/09/14 05:50:31;;;;;;;;;;;;;;;17.95;100.00;96990.03;5060732;28;20000;-76
2022/09/14 05:52:57;;;;;;;;;;;;;;;17.94;100.00;97007.38;5079966;28;19980;-74
2022/09/14 05:55:23;;;;;;;;;;;;;;;17.68;100.00;97029.19;5076950;28;19955;-74
2022/09/14 05:57:50;;;;;;;;;;;;;;;17.64;100.00;97038.28;5075592;28;20372;-74
2022/09/14 06:00:18;;;;;;;;;;;;;;;17.85;100.00;97059.88;5077376;28;20004;-75
2022/09/14 06:02:45;;;;;;;;;;;;;;;17.98;100.00;97065.00;5080580;28;19924;-75
2022/09/14 06:05:12;;;;;;;;;;;;;;;18.10;100.00;97031.84;5079773;28;19925;-73
2022/09/14 06:07:38;;;;;;;;;;;;;;;18.20;100.00;97026.81;5076794;28;19931;-73
2022/09/14 06:10:05;;;;;;;;;;;;;;;18.37;100.00;97027.75;5076013;28;19925;-73
2022/09/14 06:12:31;;;;;;;;;;;;;;;18.37;100.00;97014.25;5061370;28;19956;-74
2022/09/14 06:14:58;;;;;;;;;;;;;;;18.32;100.00;97002.50;5079184;28;20011;-74
2022/09/14 06:17:26;;;;;;;;;;;;;;;18.09;100.00;97001.34;5076957;28;19925;-74
2022/09/14 06:19:52;;;;;;;;;;;;;;;17.95;100.00;96973.81;5075398;28;19935;-74
2022/09/14 06:24:56;;;;;;;;;;;;;;;17.74;100.00;96971.16;5071826;28;19959;-81
2022/09/14 06:27:23;;;;;;;;;;;;;;;17.58;100.00;96972.88;5036893;28;20638;-81
2022/09/14 06:29:52;;;;;;;;;;;;;;;17.48;100.00;96958.97;5042252;28;19947;-82
2022/09/14 06:32:18;;;;;;;;;;;;;;;17.31;100.00;96959.09;5057466;28;20046;-82
2022/09/14 06:34:46;;;;;;;;;;;;;;;17.19;100.00;96957.91;5057807;28;19928;-80
2022/09/14 06:37:12;;;;;;;;;;;;;;;17.12;100.00;96963.03;5067830;28;19932;-82
2022/09/14 06:39:39;;;;;;;;;;;;;;;17.03;100.00;96958.81;5067836;28;20053;-81
2022/09/14 06:42:05;;;;;;;;;;;;;;;17.02;100.00;96955.31;5063124;28;19928;-81
2022/09/14 06:44:31;;;;;;;;;;;;;;;16.94;100.00;96950.00;5058947;28;19928;-81
2022/09/14 06:46:58;;;;;;;;;;;;;;;16.99;100.00;96942.50;5081923;28;19927;-80
2022/09/14 06:49:24;;;;;;;;;;;;;;;16.99;100.00;96933.63;5075676;28;20422;-81
2022/09/14 06:51:54;;;;;;;;;;;;;;;16.91;100.00;96940.66;5059717;28;19933;-81
2022/09/14 06:54:21;;;;;;;;;;;;;;;16.81;100.00;96941.03;5076204;28;19959;-81
2022/09/14 06:56:47;;;;;;;;;;;;;;;16.85;100.00;96924.97;5074903;28;19924;-81
2022/09/14 06:59:15;;;;;;;;;;;;;;;16.94;100.00;96929.22;5073088;28;19935;-80
2022/09/14 07:01:41;;;;;;;;;;;;;;;16.96;100.00;96932.34;5082486;28;19928;-81
2022/09/14 07:04:08;;;;;;;;;;;;;;;16.92;100.00;96923.38;5080159;28;20302;-81
2022/09/14 07:06:38;;;;;;;;;;;;;;;17.00;100.00;96932.50;5063443;28;20016;-82
2022/09/14 07:09:06;;;;;;;;;;;;;;;17.25;100.00;96937.72;5068121;28;19928;-81
2022/09/14 07:11:32;;;;;;;;;;;;;;;17.43;100.00;96942.97;5086171;28;20489;-81
2022/09/14 07:13:58;;;;;;;;;;;;;;;17.50;100.00;96956.72;5070434;28;19924;-81
2022/09/14 07:16:25;;;;;;;;;;;;;;;17.70;100.00;96951.34;5071911;28;19935;-82
2022/09/14 07:18:52;;;;;;;;;;;;;;;17.68;100.00;96963.59;5078647;28;20624;-81
2022/09/14 07:21:20;;;;;;;;;;;;;;;17.68;100.00;96947.38;5048401;28;19930;-82
2022/09/14 07:23:46;;;;;;;;;;;;;;;17.71;100.00;96949.41;5073115;28;20014;-80
2022/09/14 07:26:15;;;;;;;;;;;;;;;17.85;100.00;96955.34;5078099;28;19942;-81
2022/09/14 07:28:43;;;;;;;;;;;;;;;17.93;100.00;96956.38;5071380;28;19929;-80
2022/09/14 07:31:14;;;;;;;;;;;;;;;17.96;100.00;96947.59;5067548;28;19928;-82
2022/09/14 07:33:40;;;;;;;;;;;;;;;17.89;100.00;96955.47;5061023;28;20318;-81
2022/09/14 07:36:07;;;;;;;;;;;;;;;17.80;100.00;96952.81;5081301;28;19928;-81
2022/09/14 07:38:34;;;;;;;;;;;;;;;17.89;100.00;96968.97;5075203;28;20316;-82
2022/09/14 07:41:01;;;;;;;;;;;;;;;18.02;100.00;96975.97;5060317;28;20339;-81
2022/09/14 07:43:28;;;;;;;;;;;;;;;18.04;100.00;96966.41;5067219;28;19967;-81
2022/09/14 07:45:55;;;;;;;;;;;;;;;18.07;100.00;96960.34;5069718;28;19935;-81
2022/09/14 07:48:22;;;;;;;;;;;;;;;18.07;100.00;96951.47;5064192;28;19939;-81
2022/09/14 07:50:48;;;;;;;;;;;;;;;18.18;100.00;96966.91;5072283;28;19936;-81
2022/09/14 07:53:14;;;;;;;;;;;;;;;18.14;100.00;96955.19;5081853;28;19930;-81
2022/09/14 07:55:41;;;;;;;;;;;;;;;18.07;100.00;96987.34;5062848;28;19935;-82
2022/09/14 07:58:07;;;;;;;;;;;;;;;18.09;100.00;96992.44;5074442;28;19928;-81
2022/09/14 08:00:35;;;;;;;;;;;;;;;18.02;100.00;96979.47;5055826;28;19928;-81
2022/09/14 08:03:01;;;;;;;;;;;;;;;18.10;100.00;96983.22;5080612;28;19929;-80
2022/09/14 08:05:27;;;;;;;;;;;;;;;18.16;100.00;96976.47;5086389;28;20568;-81
2022/09/14 08:07:54;;;;;;;;;;;;;;;18.16;100.00;96971.88;5082660;28;19924;-81
2022/09/14 08:10:21;;;;;;;;;;;;;;;18.12;100.00;96962.84;5063616;28;19985;-79
2022/09/14 08:12:50;;;;;;;;;;;;;;;18.07;100.00;96965.75;5082083;28;19934;-82
2022/09/14 08:15:16;;;;;;;;;;;;;;;18.07;100.00;96963.03;5080728;28;20023;-81
2022/09/14 08:17:43;;;;;;;;;;;;;;;18.14;100.00;96962.50;5073009;28;20339;-81
2022/09/14 08:20:10;;;;;;;;;;;;;;;18.12;100.00;96970.16;5083829;28;19934;-80
2022/09/14 08:22:36;;;;;;;;;;;;;;;17.99;100.00;96961.22;5083021;28;20007;-81
2022/09/14 08:25:02;;;;;;;;;;;;;;;17.82;100.00;96966.00;5094020;28;19935;-81
2022/09/14 08:27:29;;;;;;;;;;;;;;;17.93;100.00;96967.16;5083091;28;19929;-81
2022/09/14 08:29:55;;;;;;;;;;;;;;;17.91;100.00;96978.31;5065651;28;19924;-82
2022/09/14 08:32:22;;;;;;;;;;;;;;;17.96;100.00;96991.59;5076078;28;19928;-81
2022/09/14 08:34:51;;;;;;;;;;;;;;;18.12;100.00;96992.56;5054017;28;19929;-81
2022/09/14 08:37:17;;;;;;;;;;;;;;;18.17;100.00;96996.97;5072966;28;19927;-81
2022/09/14 08:39:44;;;;;;;;;;;;;;;18.33;100.00;97001.41;5088252;28;19928;-81
2022/09/14 08:42:14;;;;;;;;;;;;;;;18.44;100.00;97007.19;5068554;28;19943;-81
2022/09/14 08:44:41;;;;;;;;;;;;;;;18.32;100.00;96988.22;5072000;28;19925;-80
2022/09/14 08:47:11;;;;;;;;;;;;;;;18.37;100.00;96984.50;5065058;28;19928;-82
2022/09/14 08:49:44;;;;;;;;;;;;;;;18.31;100.00;96981.25;5069195;28;19931;-83
2022/09/14 08:52:19;;;;;;;;;;;;;;;18.32;100.00;96972.78;5079425;28;19954;-82
2022/09/14 08:54:46;;;;;;;;;;;;;;;18.26;100.00;96966.00;5071369;28;19930;-82
2022/09/14 08:57:17;;;;;;;;;;;;;;;18.23;100.00;96969.38;5062956;28;19925;-80
2022/09/14 08:59:49;;;;;;;;;;;;;;;18.25;100.00;96964.47;5077278;28;19931;-80
2022/09/14 09:02:31;;;;;;;;;;;;;;;18.25;100.00;96961.75;5079734;28;19924;-81
2022/09/14 09:05:01;;;;;;;;;;;;;;;18.26;100.00;96963.31;5061999;28;20027;-81
2022/09/14 09:07:32;;;;;;;;;;;;;;;18.43;100.00;96969.66;5085689;28;19924;-80
2022/09/14 09:10:00;;;;;;;;;;;;;;;18.50;100.00;96968.00;5076437;28;19924;-81
2022/09/14 09:12:30;;;;;;;;;;;;;;;18.69;100.00;96978.28;5085832;28;19927;-83
2022/09/14 09:14:59;;;;;;;;;;;;;;;18.70;100.00;96977.94;5057489;28;19928;-83
2022/09/14 09:17:28;;;;;;;;;;;;;;;18.60;100.00;96970.25;5096394;28;19924;-80
2022/09/14 09:19:59;;;;;;;;;;;;;;;18.72;100.00;96980.31;5086589;28;19928;-81
2022/09/14 09:22:27;;;;;;;;;;;;;;;18.78;100.00;96965.44;5088298;28;19928;-81
2022/09/14 09:24:55;;;;;;;;;;;;;;;18.80;100.00;96965.88;5085707;28;19979;-80
2022/09/14 09:27:22;;;;;;;;;;;;;;;18.96;100.00;96974.09;5078001;28;19934;-81
2022/09/14 09:29:49;;;;;;;;;;;;;;;19.17;100.00;96972.84;5085215;28;19928;-86
2022/09/14 09:32:17;;;;;;;;;;;;;;;19.08;100.00;96988.41;5081473;28;19931;-82
2022/09/14 09:34:44;;;;;;;;;;;;;;;19.34;100.00;96994.22;5088182;28;19928;-80
2022/09/14 09:37:13;;;;;;;;;;;;;;;19.28;100.00;97003.72;5076123;28;19928;-80
2022/09/14 09:39:39;;;;;;;;;;;;;;;19.30;100.00;96996.06;5099850;28;19935;-81
2022/09/14 09:42:11;;;;;;;;;;;;;;;19.34;100.00;97005.06;5075361;28;19928;-81
2022/09/14 09:44:53;;;;;;;;;;;;;;;19.39;100.00;97007.56;5069217;28;19956;-81
2022/09/14 09:47:25;;;;;;;;;;;;;;;19.39;100.00;96991.34;5069894;28;19929;-79
2022/09/14 09:49:58;;;;;;;;;;;;;;;19.19;100.00;96999.53;5069120;28;20366;-81
2022/09/14 09:52:24;;;;;;;;;;;;;;;19.37;100.00;97000.91;5071951;28;19928;-81
2022/09/14 09:54:52;;;;;;;;;;;;;;;19.29;100.00;96997.19;5072647;28;19933;-81
2022/09/14 09:57:21;;;;;;;;;;;;;;;19.50;100.00;96997.03;5074555;28;19931;-80
2022/09/14 09:59:48;;;;;;;;;;;;;;;19.70;100.00;96992.59;5066618;28;19924;-81
2022/09/14 10:02:20;;;;;;;;;;;;;;;19.68;100.00;96982.09;5079672;28;19924;-81
2022/09/14 10:04:55;;;;;;;;;;;;;;;19.94;100.00;96981.66;5072246;28;19935;-81
2022/09/14 10:07:22;;;;;;;;;;;;;;;19.72;100.00;96977.56;5084968;28;19966;-81
2022/09/14 10:09:56;;;;;;;;;;;;;;;19.84;100.00;96974.81;5081435;28;19924;-81
2022/09/14 10:12:24;;;;;;;;;;;;;;;19.93;100.00;96974.66;5065575;28;19931;-80
2022/09/14 10:15:02;;;;;;;;;;;;;;;19.98;100.00;96966.28;5086143;28;20387;-80
2022/09/14 10:17:29;;;;;;;;;;;;;;;20.19;100.00;96972.28;5096251;28;20594;-80
2022/09/14 10:19:57;;;;;;;;;;;;;;;20.07;100.00;96969.63;5082800;28;19932;-81
2022/09/14 10:22:26;;;;;;;;;;;;;;;20.04;100.00;96964.91;5082403;28;19935;-81
2022/09/14 10:24:54;;;;;;;;;;;;;;;20.28;100.00;96981.06;5087751;28;19928;-80
2022/09/14 10:27:39;;;;;;;;;;;;;;;20.13;100.00;96972.88;5084766;28;19932;-82
2022/09/14 10:30:06;;;;;;;;;;;;;;;20.16;100.00;96983.03;5087786;28;20314;-82
2022/09/14 10:32:33;;;;;;;;;;;;;;;20.14;100.00;96969.03;5085882;28;19955;-80
2022/09/14 10:34:59;;;;;;;;;;;;;;;20.21;100.00;96961.84;5076256;28;19924;-81
2022/09/14 10:37:31;;;;;;;;;;;;;;;20.15;100.00;96954.31;5075913;28;19935;-81
2022/09/14 10:40:07;;;;;;;;;;;;;;;20.39;100.00;96954.22;5071506;28;19928;-80
2022/09/14 10:42:38;;;;;;;;;;;;;;;20.29;100.00;96938.47;5048371;28;20023;-80
2022/09/14 10:45:17;;;;;;;;;;;;;;;20.35;100.00;96942.50;5071532;28;19924;-81
2022/09/14 10:47:54;;;;;;;;;;;;;;;20.41;100.00;96939.19;5073645;28;19925;-80
2022/09/14 10:50:27;;;;;;;;;;;;;;;20.52;100.00;96939.44;5070714;28;19998;-81
2022/09/14 10:52:56;;;;;;;;;;;;;;;20.44;100.00;96921.41;5078216;28;20002;-79
2022/09/14 10:55:30;;;;;;;;;;;;;;;20.53;100.00;96915.81;5067139;28;19925;-80
2022/09/14 10:58:02;;;;;;;;;;;;;;;20.69;100.00;96906.53;5074150;28;20526;-82
2022/09/14 11:00:33;;;;;;;;;;;;;;;21.03;100.00;96915.81;5073694;28;20100;-81
2022/09/14 11:03:04;;;;;;;;;;;;;;;21.00;100.00;96919.25;5078184;28;19928;-80
2022/09/14 11:05:34;;;;;;;;;;;;;;;21.26;100.00;96900.44;5089755;28;19955;-82
2022/09/14 11:08:05;;;;;;;;;;;;;;;21.00;100.00;96889.41;5069110;28;20697;-81
2022/09/14 11:10:35;;;;;;;;;;;;;;;21.21;100.00;96898.00;5074150;28;19955;-81
2022/09/14 11:13:13;;;;;;;;;;;;;;;21.06;100.00;96901.53;5076840;28;20418;-81
2022/09/14 11:15:45;;;;;;;;;;;;;;;21.48;100.00;96905.16;5086778;28;19923;-80
2022/09/14 11:18:17;;;;;;;;;;;;;;;21.68;100.00;96894.31;5083405;28;20356;-80
2022/09/14 11:20:46;;;;;;;;;;;;;;;21.27;100.00;96879.50;5070960;28;19924;-80
2022/09/14 11:23:25;;;;;;;;;;;;;;;21.21;100.00;96886.38;5086600;28;20379;-80
2022/09/14 11:25:54;;;;;;;;;;;;;;;21.52;100.00;96880.78;5056209;28;20526;-79
2022/09/14 11:28:22;;;;;;;;;;;;;;;21.72;100.00;96868.00;5054538;28;20049;-81
2022/09/14 11:30:51;;;;;;;;;;;;;;;21.66;100.00;96869.44;5071692;28;20007;-81
2022/09/14 11:33:20;;;;;;;;;;;;;;;21.64;100.00;96869.78;5075385;28;19936;-81
2022/09/14 11:35:49;;;;;;;;;;;;;;;22.00;100.00;96863.09;5065118;28;19925;-81
2022/09/14 11:38:18;;;;;;;;;;;;;;;22.08;100.00;96864.78;5055926;28;20286;-81
2022/09/14 11:40:46;;;;;;;;;;;;;;;22.24;100.00;96861.94;5079759;28;19934;-82
2022/09/14 11:43:15;;;;;;;;;;;;;;;22.47;100.00;96858.03;5071749;28;19951;-82
2022/09/14 11:45:45;;;;;;;;;;;;;;;22.76;100.00;96859.28;5069315;28;19933;-81
2022/09/14 11:48:16;;;;;;;;;;;;;;;22.74;100.00;96850.72;5074783;28;19924;-79
2022/09/14 11:50:44;;;;;;;;;;;;;;;22.71;100.00;96853.38;5068634;28;19929;-80
2022/09/14 11:53:12;;;;;;;;;;;;;;;22.69;100.00;96842.06;5079131;28;19935;-80
2022/09/14 11:55:42;;;;;;;;;;;;;;;22.71;100.00;96837.06;5080323;28;19994;-80
2022/09/14 11:58:16;;;;;;;;;;;;;;;22.89;100.00;96829.91;5088298;28;19928;-78
2022/09/14 12:00:46;;;;;;;;;;;;;;;23.00;100.00;96825.38;5073670;28;19967;-81
2022/09/14 12:03:15;;;;;;;;;;;;;;;23.30;100.00;96830.81;5077981;28;19924;-81
2022/09/14 12:05:43;;;;;;;;;;;;;;;23.04;100.00;96826.22;5088931;28;19930;-79
2022/09/14 12:08:25;;;;;;;;;;;;;;;23.06;100.00;96832.06;5065000;28;19934;-81
2022/09/14 12:11:05;;;;;;;;;;;;;;;23.12;100.00;96831.38;5077900;28;19931;-80
2022/09/14 12:13:32;;;;;;;;;;;;;;;23.43;100.00;96838.38;5072112;28;19993;-81
2022/09/14 12:16:03;;;;;;;;;;;;;;;23.27;100.00;96837.81;5091566;28;19935;-83
2022/09/14 12:18:31;;;;;;;;;;;;;;;23.09;100.00;96842.22;5078999;28;19924;-82
2022/09/14 12:21:06;;;;;;;;;;;;;;;22.92;100.00;96835.41;5093006;28;19928;-80
2022/09/14 12:23:42;;;;;;;;;;;;;;;22.78;100.00;96842.56;5082168;28;19928;-80
2022/09/14 12:26:23;;;;;;;;;;;;;;;22.79;100.00;96833.25;5091838;28;19924;-82
2022/09/14 12:28:51;;;;;;;;;;;;;;;23.16;100.00;96836.88;5073446;28;20354;-81
2022/09/14 12:31:34;;;;;;;;;;;;;;;23.07;100.00;96844.53;5081676;28;20489;-81
2022/09/14 12:34:16;;;;;;;;;;;;;;;23.11;100.00;96834.47;5088942;28;19958;-80
2022/09/14 12:36:56;;;;;;;;;;;;;;;23.26;100.00;96846.34;5050349;28;19966;-83
2022/09/14 12:39:24;;;;;;;;;;;;;;;23.27;100.00;96839.75;5090881;28;19928;-82
2022/09/14 12:42:01;;;;;;;;;;;;;;;23.02;100.00;96829.31;5059488;28;20397;-82
2022/09/14 12:44:35;;;;;;;;;;;;;;;22.94;100.00;96835.03;5059287;28;20758;-82